sensor_id;sensor_type;location;lat;lon;timestamp;P1;durP1;ratioP1;P2;durP2;ratioP2
43248;SDS011;29216;51.248;6.808;2023-08-24T00:02:05;6.55;;;4.40;;
43248;SDS011;29216;51.248;6.808;2023-08-24T00:04:32;7.95;;;4.32;;
43248;SDS011;29216;51.248;6.808;2023-08-24T00:06:59;8.73;;;4.05;;
43248;SDS011;29216;51.248;6.808;2023-08-24T00:09:25;5.10;;;3.70;;
43248;SDS011;29216;51.248;6.808;2023-08-24T00:11:51;7.78;;;4.38;;
43248;SDS011;29216;51.248;6.808;2023-08-24T00:14:17;6.57;;;4.10;;
43248;SDS011;29216;51.248;6.808;2023-08-24T00:16:43;7.72;;;4.00;;
43248;SDS011;29216;51.248;6.808;2023-08-24T00:19:09;7.93;;;4.18;;
43248;SDS011;29216;51.248;6.808;2023-08-24T00:21:36;7.43;;;4.15;;
43248;SDS011;29216;51.248;6.808;2023-08-24T00:24:02;5.82;;;4.22;;
43248;SDS011;29216;51.248;6.808;2023-08-24T00:26:28;6.13;;;3.72;;
43248;SDS011;29216;51.248;6.808;2023-08-24T00:28:54;9.85;;;4.35;;
43248;SDS011;29216;51.248;6.808;2023-08-24T00:31:20;7.80;;;4.15;;
43248;SDS011;29216;51.248;6.808;2023-08-24T00:33:46;9.32;;;3.83;;
43248;SDS011;29216;51.248;6.808;2023-08-24T00:36:12;9.63;;;4.40;;
43248;SDS011;29216;51.248;6.808;2023-08-24T00:38:38;7.50;;;4.10;;
43248;SDS011;29216;51.248;6.808;2023-08-24T00:41:04;5.18;;;4.00;;
43248;SDS011;29216;51.248;6.808;2023-08-24T00:43:30;8.55;;;3.85;;
43248;SDS011;29216;51.248;6.808;2023-08-24T00:45:56;8.75;;;3.83;;
43248;SDS011;29216;51.248;6.808;2023-08-24T00:48:22;5.18;;;3.72;;
43248;SDS011;29216;51.248;6.808;2023-08-24T00:50:51;10.68;;;4.00;;
43248;SDS011;29216;51.248;6.808;2023-08-24T00:53:18;6.22;;;4.10;;
43248;SDS011;29216;51.248;6.808;2023-08-24T00:55:44;6.85;;;4.40;;
43248;SDS011;29216;51.248;6.808;2023-08-24T00:58:10;7.38;;;4.10;;
43248;SDS011;29216;51.248;6.808;2023-08-24T01:00:37;8.43;;;4.05;;
43248;SDS011;29216;51.248;6.808;2023-08-24T01:03:03;7.35;;;3.75;;
43248;SDS011;29216;51.248;6.808;2023-08-24T01:05:29;7.93;;;4.03;;
43248;SDS011;29216;51.248;6.808;2023-08-24T01:07:55;5.10;;;3.80;;
43248;SDS011;29216;51.248;6.808;2023-08-24T01:10:21;5.38;;;3.75;;
43248;SDS011;29216;51.248;6.808;2023-08-24T01:12:54;5.15;;;3.75;;
43248;SDS011;29216;51.248;6.808;2023-08-24T01:17:49;6.63;;;4.20;;
43248;SDS011;29216;51.248;6.808;2023-08-24T01:20:15;7.28;;;4.25;;
43248;SDS011;29216;51.248;6.808;2023-08-24T01:23:03;5.68;;;3.85;;
43248;SDS011;29216;51.248;6.808;2023-08-24T01:28:02;10.73;;;4.70;;
43248;SDS011;29216;51.248;6.808;2023-08-24T01:30:29;8.32;;;4.82;;
43248;SDS011;29216;51.248;6.808;2023-08-24T01:32:58;8.40;;;5.00;;
43248;SDS011;29216;51.248;6.808;2023-08-24T01:35:24;8.50;;;4.72;;
43248;SDS011;29216;51.248;6.808;2023-08-24T01:37:50;7.88;;;4.80;;
43248;SDS011;29216;51.248;6.808;2023-08-24T01:40:17;7.70;;;4.70;;
43248;SDS011;29216;51.248;6.808;2023-08-24T01:43:01;8.82;;;4.53;;
43248;SDS011;29216;51.248;6.808;2023-08-24T01:47:56;9.25;;;4.55;;
43248;SDS011;29216;51.248;6.808;2023-08-24T01:50:22;10.13;;;4.95;;
43248;SDS011;29216;51.248;6.808;2023-08-24T01:52:49;10.65;;;4.97;;
43248;SDS011;29216;51.248;6.808;2023-08-24T01:55:18;10.85;;;4.75;;
43248;SDS011;29216;51.248;6.808;2023-08-24T01:57:44;11.20;;;6.40;;
43248;SDS011;29216;51.248;6.808;2023-08-24T02:00:10;7.18;;;4.65;;
43248;SDS011;29216;51.248;6.808;2023-08-24T02:02:37;8.75;;;4.72;;
43248;SDS011;29216;51.248;6.808;2023-08-24T02:05:03;8.02;;;5.15;;
43248;SDS011;29216;51.248;6.808;2023-08-24T02:07:29;7.03;;;5.30;;
43248;SDS011;29216;51.248;6.808;2023-08-24T02:09:55;7.93;;;4.45;;
43248;SDS011;29216;51.248;6.808;2023-08-24T02:12:21;7.32;;;4.88;;
43248;SDS011;29216;51.248;6.808;2023-08-24T02:14:47;7.47;;;4.60;;
43248;SDS011;29216;51.248;6.808;2023-08-24T02:17:13;7.65;;;4.20;;
43248;SDS011;29216;51.248;6.808;2023-08-24T02:19:39;10.27;;;4.78;;
43248;SDS011;29216;51.248;6.808;2023-08-24T02:22:08;11.02;;;4.72;;
43248;SDS011;29216;51.248;6.808;2023-08-24T02:24:34;6.82;;;4.25;;
43248;SDS011;29216;51.248;6.808;2023-08-24T02:27:00;10.02;;;4.68;;
43248;SDS011;29216;51.248;6.808;2023-08-24T02:29:26;5.88;;;4.57;;
43248;SDS011;29216;51.248;6.808;2023-08-24T02:31:52;9.23;;;4.28;;
43248;SDS011;29216;51.248;6.808;2023-08-24T02:34:19;6.93;;;4.50;;
43248;SDS011;29216;51.248;6.808;2023-08-24T02:36:45;8.38;;;4.32;;
43248;SDS011;29216;51.248;6.808;2023-08-24T02:39:11;8.68;;;3.95;;
43248;SDS011;29216;51.248;6.808;2023-08-24T02:41:37;10.55;;;4.05;;
43248;SDS011;29216;51.248;6.808;2023-08-24T02:44:03;6.88;;;4.13;;
43248;SDS011;29216;51.248;6.808;2023-08-24T02:46:29;6.93;;;4.13;;
43248;SDS011;29216;51.248;6.808;2023-08-24T02:48:55;9.18;;;4.57;;
43248;SDS011;29216;51.248;6.808;2023-08-24T02:51:21;9.43;;;4.50;;
43248;SDS011;29216;51.248;6.808;2023-08-24T02:53:48;5.72;;;4.22;;
43248;SDS011;29216;51.248;6.808;2023-08-24T02:56:14;8.45;;;4.30;;
43248;SDS011;29216;51.248;6.808;2023-08-24T02:58:40;6.80;;;4.40;;
43248;SDS011;29216;51.248;6.808;2023-08-24T03:01:06;10.68;;;5.20;;
43248;SDS011;29216;51.248;6.808;2023-08-24T03:03:33;6.95;;;4.35;;
43248;SDS011;29216;51.248;6.808;2023-08-24T03:06:00;7.72;;;4.57;;
43248;SDS011;29216;51.248;6.808;2023-08-24T03:08:26;6.97;;;4.68;;
43248;SDS011;29216;51.248;6.808;2023-08-24T03:10:52;10.40;;;4.15;;
43248;SDS011;29216;51.248;6.808;2023-08-24T03:13:18;7.53;;;4.47;;
43248;SDS011;29216;51.248;6.808;2023-08-24T03:15:44;5.13;;;3.90;;
43248;SDS011;29216;51.248;6.808;2023-08-24T03:18:11;8.50;;;4.40;;
43248;SDS011;29216;51.248;6.808;2023-08-24T03:20:38;8.10;;;4.22;;
43248;SDS011;29216;51.248;6.808;2023-08-24T03:23:04;8.02;;;4.72;;
43248;SDS011;29216;51.248;6.808;2023-08-24T03:25:30;5.93;;;4.22;;
43248;SDS011;29216;51.248;6.808;2023-08-24T03:27:56;8.55;;;4.55;;
43248;SDS011;29216;51.248;6.808;2023-08-24T03:30:23;6.85;;;4.43;;
43248;SDS011;29216;51.248;6.808;2023-08-24T03:32:49;8.50;;;4.05;;
43248;SDS011;29216;51.248;6.808;2023-08-24T03:35:15;8.70;;;3.90;;
43248;SDS011;29216;51.248;6.808;2023-08-24T03:37:41;5.97;;;3.78;;
43248;SDS011;29216;51.248;6.808;2023-08-24T03:40:07;8.43;;;4.07;;
43248;SDS011;29216;51.248;6.808;2023-08-24T03:42:33;6.88;;;3.97;;
43248;SDS011;29216;51.248;6.808;2023-08-24T03:44:59;10.30;;;4.28;;
43248;SDS011;29216;51.248;6.808;2023-08-24T03:47:25;6.38;;;3.80;;
43248;SDS011;29216;51.248;6.808;2023-08-24T03:49:51;7.40;;;3.85;;
43248;SDS011;29216;51.248;6.808;2023-08-24T03:52:17;7.47;;;4.38;;
43248;SDS011;29216;51.248;6.808;2023-08-24T03:54:43;7.13;;;4.20;;
43248;SDS011;29216;51.248;6.808;2023-08-24T03:57:09;9.57;;;4.05;;
43248;SDS011;29216;51.248;6.808;2023-08-24T03:59:35;5.60;;;4.13;;
43248;SDS011;29216;51.248;6.808;2023-08-24T04:02:01;6.15;;;3.80;;
43248;SDS011;29216;51.248;6.808;2023-08-24T04:04:28;6.03;;;4.03;;
43248;SDS011;29216;51.248;6.808;2023-08-24T04:06:55;9.98;;;5.28;;
43248;SDS011;29216;51.248;6.808;2023-08-24T04:09:21;5.97;;;4.53;;
43248;SDS011;29216;51.248;6.808;2023-08-24T04:11:47;8.30;;;5.05;;
43248;SDS011;29216;51.248;6.808;2023-08-24T04:14:13;7.13;;;4.28;;
43248;SDS011;29216;51.248;6.808;2023-08-24T04:16:39;7.40;;;4.30;;
43248;SDS011;29216;51.248;6.808;2023-08-24T04:19:06;8.77;;;4.75;;
43248;SDS011;29216;51.248;6.808;2023-08-24T04:21:33;7.35;;;4.60;;
43248;SDS011;29216;51.248;6.808;2023-08-24T04:23:59;7.50;;;4.18;;
43248;SDS011;29216;51.248;6.808;2023-08-24T04:26:25;7.53;;;4.80;;
43248;SDS011;29216;51.248;6.808;2023-08-24T04:28:51;7.75;;;4.50;;
43248;SDS011;29216;51.248;6.808;2023-08-24T04:31:17;7.65;;;4.55;;
43248;SDS011;29216;51.248;6.808;2023-08-24T04:33:43;9.68;;;4.97;;
43248;SDS011;29216;51.248;6.808;2023-08-24T04:36:09;10.13;;;4.88;;
43248;SDS011;29216;51.248;6.808;2023-08-24T04:38:35;6.22;;;4.68;;
43248;SDS011;29216;51.248;6.808;2023-08-24T04:41:01;10.52;;;5.25;;
43248;SDS011;29216;51.248;6.808;2023-08-24T04:43:27;8.10;;;4.85;;
43248;SDS011;29216;51.248;6.808;2023-08-24T04:45:53;9.43;;;5.20;;
43248;SDS011;29216;51.248;6.808;2023-08-24T04:48:23;8.90;;;5.35;;
43248;SDS011;29216;51.248;6.808;2023-08-24T04:50:49;9.80;;;5.32;;
43248;SDS011;29216;51.248;6.808;2023-08-24T04:53:18;8.27;;;5.47;;
43248;SDS011;29216;51.248;6.808;2023-08-24T04:55:45;8.45;;;5.22;;
43248;SDS011;29216;51.248;6.808;2023-08-24T04:58:11;7.40;;;5.43;;
43248;SDS011;29216;51.248;6.808;2023-08-24T05:00:41;8.98;;;5.22;;
43248;SDS011;29216;51.248;6.808;2023-08-24T05:03:07;8.65;;;5.47;;
43248;SDS011;29216;51.248;6.808;2023-08-24T05:05:33;7.82;;;5.35;;
43248;SDS011;29216;51.248;6.808;2023-08-24T05:08:00;13.30;;;5.82;;
43248;SDS011;29216;51.248;6.808;2023-08-24T05:10:29;7.95;;;5.03;;
43248;SDS011;29216;51.248;6.808;2023-08-24T05:12:55;8.40;;;5.10;;
43248;SDS011;29216;51.248;6.808;2023-08-24T05:15:21;8.77;;;5.25;;
43248;SDS011;29216;51.248;6.808;2023-08-24T05:17:47;7.88;;;5.25;;
43248;SDS011;29216;51.248;6.808;2023-08-24T05:20:13;10.43;;;5.13;;
43248;SDS011;29216;51.248;6.808;2023-08-24T05:22:39;8.82;;;5.10;;
43248;SDS011;29216;51.248;6.808;2023-08-24T05:25:06;9.90;;;5.60;;
43248;SDS011;29216;51.248;6.808;2023-08-24T05:27:32;9.48;;;6.20;;
43248;SDS011;29216;51.248;6.808;2023-08-24T05:29:58;9.70;;;6.10;;
43248;SDS011;29216;51.248;6.808;2023-08-24T05:32:24;7.38;;;4.95;;
43248;SDS011;29216;51.248;6.808;2023-08-24T05:34:50;7.30;;;5.03;;
43248;SDS011;29216;51.248;6.808;2023-08-24T05:37:16;8.77;;;5.05;;
43248;SDS011;29216;51.248;6.808;2023-08-24T05:39:42;6.82;;;5.20;;
43248;SDS011;29216;51.248;6.808;2023-08-24T05:42:08;9.73;;;5.03;;
43248;SDS011;29216;51.248;6.808;2023-08-24T05:44:35;7.22;;;4.72;;
43248;SDS011;29216;51.248;6.808;2023-08-24T05:47:01;11.43;;;5.97;;
43248;SDS011;29216;51.248;6.808;2023-08-24T05:49:27;12.95;;;5.38;;
43248;SDS011;29216;51.248;6.808;2023-08-24T05:51:53;12.60;;;5.28;;
43248;SDS011;29216;51.248;6.808;2023-08-24T05:54:19;8.50;;;5.50;;
43248;SDS011;29216;51.248;6.808;2023-08-24T05:56:45;13.60;;;5.45;;
43248;SDS011;29216;51.248;6.808;2023-08-24T05:59:11;11.70;;;5.72;;
43248;SDS011;29216;51.248;6.808;2023-08-24T06:01:38;9.15;;;5.90;;
43248;SDS011;29216;51.248;6.808;2023-08-24T06:04:04;10.95;;;5.55;;
43248;SDS011;29216;51.248;6.808;2023-08-24T06:06:30;10.77;;;5.82;;
43248;SDS011;29216;51.248;6.808;2023-08-24T06:08:57;9.63;;;5.45;;
43248;SDS011;29216;51.248;6.808;2023-08-24T06:11:23;10.57;;;5.55;;
43248;SDS011;29216;51.248;6.808;2023-08-24T06:13:49;8.05;;;5.18;;
43248;SDS011;29216;51.248;6.808;2023-08-24T06:16:18;9.05;;;5.30;;
43248;SDS011;29216;51.248;6.808;2023-08-24T06:18:44;10.20;;;5.78;;
43248;SDS011;29216;51.248;6.808;2023-08-24T06:21:10;11.60;;;6.05;;
43248;SDS011;29216;51.248;6.808;2023-08-24T06:23:36;10.90;;;5.07;;
43248;SDS011;29216;51.248;6.808;2023-08-24T06:26:02;9.00;;;5.28;;
43248;SDS011;29216;51.248;6.808;2023-08-24T06:28:29;11.82;;;5.47;;
43248;SDS011;29216;51.248;6.808;2023-08-24T06:30:55;8.77;;;5.45;;
43248;SDS011;29216;51.248;6.808;2023-08-24T06:33:26;7.78;;;4.97;;
43248;SDS011;29216;51.248;6.808;2023-08-24T06:35:56;9.60;;;4.60;;
43248;SDS011;29216;51.248;6.808;2023-08-24T06:38:22;11.25;;;5.13;;
43248;SDS011;29216;51.248;6.808;2023-08-24T06:40:48;7.13;;;4.90;;
43248;SDS011;29216;51.248;6.808;2023-08-24T06:43:14;6.82;;;4.72;;
43248;SDS011;29216;51.248;6.808;2023-08-24T06:45:40;10.45;;;5.35;;
43248;SDS011;29216;51.248;6.808;2023-08-24T06:48:06;9.30;;;4.50;;
43248;SDS011;29216;51.248;6.808;2023-08-24T06:50:33;9.20;;;4.38;;
43248;SDS011;29216;51.248;6.808;2023-08-24T06:52:59;9.13;;;4.40;;
43248;SDS011;29216;51.248;6.808;2023-08-24T06:55:26;8.02;;;4.13;;
43248;SDS011;29216;51.248;6.808;2023-08-24T06:57:52;8.43;;;4.32;;
43248;SDS011;29216;51.248;6.808;2023-08-24T07:00:18;8.98;;;4.60;;
43248;SDS011;29216;51.248;6.808;2023-08-24T07:02:46;10.98;;;4.53;;
43248;SDS011;29216;51.248;6.808;2023-08-24T07:05:12;6.88;;;4.20;;
43248;SDS011;29216;51.248;6.808;2023-08-24T07:07:38;6.65;;;4.15;;
43248;SDS011;29216;51.248;6.808;2023-08-24T07:10:04;5.95;;;3.67;;
43248;SDS011;29216;51.248;6.808;2023-08-24T07:12:31;6.63;;;3.83;;
43248;SDS011;29216;51.248;6.808;2023-08-24T07:14:57;11.07;;;3.95;;
43248;SDS011;29216;51.248;6.808;2023-08-24T07:17:23;5.72;;;3.75;;
43248;SDS011;29216;51.248;6.808;2023-08-24T07:19:49;5.20;;;3.47;;
43248;SDS011;29216;51.248;6.808;2023-08-24T07:22:15;5.03;;;3.47;;
43248;SDS011;29216;51.248;6.808;2023-08-24T07:24:41;7.25;;;3.88;;
43248;SDS011;29216;51.248;6.808;2023-08-24T07:27:08;5.50;;;3.45;;
43248;SDS011;29216;51.248;6.808;2023-08-24T07:29:34;5.20;;;3.65;;
43248;SDS011;29216;51.248;6.808;2023-08-24T07:32:00;8.07;;;3.03;;
43248;SDS011;29216;51.248;6.808;2023-08-24T07:34:26;6.47;;;3.90;;
43248;SDS011;29216;51.248;6.808;2023-08-24T07:36:54;6.38;;;3.13;;
43248;SDS011;29216;51.248;6.808;2023-08-24T07:39:20;5.10;;;3.35;;
43248;SDS011;29216;51.248;6.808;2023-08-24T07:41:46;7.28;;;3.28;;
43248;SDS011;29216;51.248;6.808;2023-08-24T07:44:12;9.30;;;3.45;;
43248;SDS011;29216;51.248;6.808;2023-08-24T07:46:38;4.47;;;3.00;;
43248;SDS011;29216;51.248;6.808;2023-08-24T07:49:05;6.38;;;2.90;;
43248;SDS011;29216;51.248;6.808;2023-08-24T07:51:32;5.53;;;3.20;;
43248;SDS011;29216;51.248;6.808;2023-08-24T07:53:59;3.90;;;3.00;;
43248;SDS011;29216;51.248;6.808;2023-08-24T07:56:25;4.90;;;2.88;;
43248;SDS011;29216;51.248;6.808;2023-08-24T07:58:51;6.15;;;2.85;;
43248;SDS011;29216;51.248;6.808;2023-08-24T08:01:17;4.13;;;2.65;;
43248;SDS011;29216;51.248;6.808;2023-08-24T08:03:43;3.92;;;2.78;;
43248;SDS011;29216;51.248;6.808;2023-08-24T08:06:09;5.75;;;2.83;;
43248;SDS011;29216;51.248;6.808;2023-08-24T08:08:35;5.03;;;2.80;;
43248;SDS011;29216;51.248;6.808;2023-08-24T08:11:01;3.63;;;2.80;;
43248;SDS011;29216;51.248;6.808;2023-08-24T08:13:28;6.93;;;2.70;;
43248;SDS011;29216;51.248;6.808;2023-08-24T08:16:00;6.45;;;2.60;;
43248;SDS011;29216;51.248;6.808;2023-08-24T08:18:26;4.70;;;2.80;;
43248;SDS011;29216;51.248;6.808;2023-08-24T08:20:51;3.22;;;2.50;;
43248;SDS011;29216;51.248;6.808;2023-08-24T08:23:18;5.78;;;2.60;;
43248;SDS011;29216;51.248;6.808;2023-08-24T08:25:43;4.53;;;2.65;;
43248;SDS011;29216;51.248;6.808;2023-08-24T08:28:09;2.95;;;2.38;;
43248;SDS011;29216;51.248;6.808;2023-08-24T08:30:36;4.38;;;2.63;;
43248;SDS011;29216;51.248;6.808;2023-08-24T08:33:02;4.40;;;2.58;;
43248;SDS011;29216;51.248;6.808;2023-08-24T08:35:28;4.97;;;2.50;;
43248;SDS011;29216;51.248;6.808;2023-08-24T08:37:54;5.32;;;2.75;;
43248;SDS011;29216;51.248;6.808;2023-08-24T08:40:20;3.72;;;2.63;;
43248;SDS011;29216;51.248;6.808;2023-08-24T08:42:46;5.63;;;2.70;;
43248;SDS011;29216;51.248;6.808;2023-08-24T08:45:12;3.17;;;2.63;;
43248;SDS011;29216;51.248;6.808;2023-08-24T08:47:38;5.38;;;2.70;;
43248;SDS011;29216;51.248;6.808;2023-08-24T08:50:06;3.63;;;2.67;;
43248;SDS011;29216;51.248;6.808;2023-08-24T08:52:32;7.75;;;2.95;;
43248;SDS011;29216;51.248;6.808;2023-08-24T08:54:59;3.88;;;2.80;;
43248;SDS011;29216;51.248;6.808;2023-08-24T08:57:25;5.10;;;2.78;;
43248;SDS011;29216;51.248;6.808;2023-08-24T08:59:54;4.45;;;2.90;;
43248;SDS011;29216;51.248;6.808;2023-08-24T09:02:21;3.90;;;2.83;;
43248;SDS011;29216;51.248;6.808;2023-08-24T09:04:49;3.35;;;2.35;;
43248;SDS011;29216;51.248;6.808;2023-08-24T09:07:16;5.45;;;3.00;;
43248;SDS011;29216;51.248;6.808;2023-08-24T09:09:43;4.03;;;2.60;;
43248;SDS011;29216;51.248;6.808;2023-08-24T09:12:09;4.00;;;2.80;;
43248;SDS011;29216;51.248;6.808;2023-08-24T09:14:35;5.38;;;3.00;;
43248;SDS011;29216;51.248;6.808;2023-08-24T09:17:01;4.30;;;2.75;;
43248;SDS011;29216;51.248;6.808;2023-08-24T09:19:32;3.83;;;2.80;;
43248;SDS011;29216;51.248;6.808;2023-08-24T09:22:00;5.57;;;2.75;;
43248;SDS011;29216;51.248;6.808;2023-08-24T09:24:31;5.40;;;2.92;;
43248;SDS011;29216;51.248;6.808;2023-08-24T09:26:57;7.45;;;3.15;;
43248;SDS011;29216;51.248;6.808;2023-08-24T09:29:23;4.38;;;2.92;;
43248;SDS011;29216;51.248;6.808;2023-08-24T09:31:52;3.63;;;2.58;;
43248;SDS011;29216;51.248;6.808;2023-08-24T09:34:19;10.68;;;3.10;;
43248;SDS011;29216;51.248;6.808;2023-08-24T09:36:45;4.15;;;2.78;;
43248;SDS011;29216;51.248;6.808;2023-08-24T09:39:11;4.80;;;3.00;;
43248;SDS011;29216;51.248;6.808;2023-08-24T09:44:07;5.00;;;2.90;;
43248;SDS011;29216;51.248;6.808;2023-08-24T09:46:37;5.78;;;3.10;;
43248;SDS011;29216;51.248;6.808;2023-08-24T09:49:06;6.63;;;3.33;;
43248;SDS011;29216;51.248;6.808;2023-08-24T09:51:33;3.95;;;2.85;;
43248;SDS011;29216;51.248;6.808;2023-08-24T09:54:00;3.92;;;2.88;;
43248;SDS011;29216;51.248;6.808;2023-08-24T09:56:29;4.03;;;2.80;;
43248;SDS011;29216;51.248;6.808;2023-08-24T09:58:55;4.30;;;2.83;;
43248;SDS011;29216;51.248;6.808;2023-08-24T10:01:25;7.22;;;3.10;;
43248;SDS011;29216;51.248;6.808;2023-08-24T10:03:51;5.10;;;2.85;;
43248;SDS011;29216;51.248;6.808;2023-08-24T10:06:19;4.22;;;2.90;;
43248;SDS011;29216;51.248;6.808;2023-08-24T10:08:47;5.40;;;2.88;;
43248;SDS011;29216;51.248;6.808;2023-08-24T10:11:14;5.38;;;2.70;;
43248;SDS011;29216;51.248;6.808;2023-08-24T10:13:45;4.25;;;2.70;;
43248;SDS011;29216;51.248;6.808;2023-08-24T10:16:13;6.43;;;2.70;;
43248;SDS011;29216;51.248;6.808;2023-08-24T10:18:40;4.63;;;2.70;;
43248;SDS011;29216;51.248;6.808;2023-08-24T10:21:06;4.05;;;2.60;;
43248;SDS011;29216;51.248;6.808;2023-08-24T10:23:33;3.85;;;2.92;;
43248;SDS011;29216;51.248;6.808;2023-08-24T10:26:00;5.85;;;2.95;;
43248;SDS011;29216;51.248;6.808;2023-08-24T10:28:27;3.60;;;2.80;;
43248;SDS011;29216;51.248;6.808;2023-08-24T10:30:54;4.25;;;2.60;;
43248;SDS011;29216;51.248;6.808;2023-08-24T10:33:21;3.58;;;2.83;;
43248;SDS011;29216;51.248;6.808;2023-08-24T10:35:48;3.70;;;2.90;;
43248;SDS011;29216;51.248;6.808;2023-08-24T10:38:47;3.92;;;2.70;;
43248;SDS011;29216;51.248;6.808;2023-08-24T10:41:09;3.95;;;2.90;;
43248;SDS011;29216;51.248;6.808;2023-08-24T10:43:39;4.30;;;3.05;;
43248;SDS011;29216;51.248;6.808;2023-08-24T10:46:14;4.50;;;3.10;;
43248;SDS011;29216;51.248;6.808;2023-08-24T10:51:22;3.55;;;2.70;;
43248;SDS011;29216;51.248;6.808;2023-08-24T10:53:52;4.93;;;2.70;;
43248;SDS011;29216;51.248;6.808;2023-08-24T10:56:18;4.70;;;3.10;;
43248;SDS011;29216;51.248;6.808;2023-08-24T10:58:45;5.78;;;2.95;;
43248;SDS011;29216;51.248;6.808;2023-08-24T11:01:17;5.18;;;3.15;;
43248;SDS011;29216;51.248;6.808;2023-08-24T11:03:56;5.63;;;3.03;;
43248;SDS011;29216;51.248;6.808;2023-08-24T11:06:22;5.05;;;3.03;;
43248;SDS011;29216;51.248;6.808;2023-08-24T11:08:49;10.20;;;4.10;;
43248;SDS011;29216;51.248;6.808;2023-08-24T11:11:22;6.07;;;3.28;;
43248;SDS011;29216;51.248;6.808;2023-08-24T11:16:41;5.45;;;2.88;;
43248;SDS011;29216;51.248;6.808;2023-08-24T11:19:07;5.82;;;2.97;;
43248;SDS011;29216;51.248;6.808;2023-08-24T11:21:34;9.07;;;3.42;;
43248;SDS011;29216;51.248;6.808;2023-08-24T11:24:01;5.20;;;2.75;;
43248;SDS011;29216;51.248;6.808;2023-08-24T11:26:29;6.88;;;2.83;;
43248;SDS011;29216;51.248;6.808;2023-08-24T11:28:55;6.75;;;3.30;;
43248;SDS011;29216;51.248;6.808;2023-08-24T11:31:23;5.93;;;2.97;;
43248;SDS011;29216;51.248;6.808;2023-08-24T11:33:53;6.55;;;3.00;;
43248;SDS011;29216;51.248;6.808;2023-08-24T11:36:20;12.10;;;3.80;;
43248;SDS011;29216;51.248;6.808;2023-08-24T11:38:46;8.48;;;3.28;;
43248;SDS011;29216;51.248;6.808;2023-08-24T11:41:17;9.15;;;3.60;;
43248;SDS011;29216;51.248;6.808;2023-08-24T11:43:43;8.43;;;3.50;;
43248;SDS011;29216;51.248;6.808;2023-08-24T11:46:09;5.15;;;3.15;;
43248;SDS011;29216;51.248;6.808;2023-08-24T11:48:36;5.20;;;2.97;;
43248;SDS011;29216;51.248;6.808;2023-08-24T11:51:07;6.45;;;3.10;;
43248;SDS011;29216;51.248;6.808;2023-08-24T11:53:36;7.35;;;3.05;;
43248;SDS011;29216;51.248;6.808;2023-08-24T11:56:02;6.85;;;3.28;;
43248;SDS011;29216;51.248;6.808;2023-08-24T11:58:30;6.72;;;2.92;;
43248;SDS011;29216;51.248;6.808;2023-08-24T12:00:57;5.00;;;3.03;;
43248;SDS011;29216;51.248;6.808;2023-08-24T12:03:23;8.15;;;3.17;;
43248;SDS011;29216;51.248;6.808;2023-08-24T12:05:49;7.63;;;2.92;;
43248;SDS011;29216;51.248;6.808;2023-08-24T12:08:15;3.97;;;2.58;;
43248;SDS011;29216;51.248;6.808;2023-08-24T12:10:45;5.07;;;2.95;;
43248;SDS011;29216;51.248;6.808;2023-08-24T12:13:11;8.45;;;3.22;;
43248;SDS011;29216;51.248;6.808;2023-08-24T12:15:37;4.32;;;2.83;;
43248;SDS011;29216;51.248;6.808;2023-08-24T12:18:07;7.88;;;2.72;;
43248;SDS011;29216;51.248;6.808;2023-08-24T12:20:33;8.35;;;3.28;;
43248;SDS011;29216;51.248;6.808;2023-08-24T12:23:00;7.47;;;3.25;;
43248;SDS011;29216;51.248;6.808;2023-08-24T12:25:26;10.27;;;3.97;;
43248;SDS011;29216;51.248;6.808;2023-08-24T12:27:52;7.65;;;3.45;;
43248;SDS011;29216;51.248;6.808;2023-08-24T12:30:21;9.38;;;3.83;;
43248;SDS011;29216;51.248;6.808;2023-08-24T12:32:47;5.95;;;3.25;;
43248;SDS011;29216;51.248;6.808;2023-08-24T12:35:15;11.13;;;3.40;;
43248;SDS011;29216;51.248;6.808;2023-08-24T12:37:41;9.95;;;3.33;;
43248;SDS011;29216;51.248;6.808;2023-08-24T12:40:07;10.57;;;3.67;;
43248;SDS011;29216;51.248;6.808;2023-08-24T12:42:33;5.47;;;3.30;;
43248;SDS011;29216;51.248;6.808;2023-08-24T12:44:59;7.43;;;3.30;;
43248;SDS011;29216;51.248;6.808;2023-08-24T12:47:26;8.95;;;3.78;;
43248;SDS011;29216;51.248;6.808;2023-08-24T12:49:52;6.95;;;3.88;;
43248;SDS011;29216;51.248;6.808;2023-08-24T12:52:22;6.10;;;3.40;;
43248;SDS011;29216;51.248;6.808;2023-08-24T12:54:49;8.30;;;3.50;;
43248;SDS011;29216;51.248;6.808;2023-08-24T12:57:15;5.35;;;3.13;;
43248;SDS011;29216;51.248;6.808;2023-08-24T12:59:41;10.32;;;3.30;;
43248;SDS011;29216;51.248;6.808;2023-08-24T13:02:07;6.30;;;2.85;;
43248;SDS011;29216;51.248;6.808;2023-08-24T13:04:33;7.35;;;3.40;;
43248;SDS011;29216;51.248;6.808;2023-08-24T13:06:59;9.38;;;3.63;;
43248;SDS011;29216;51.248;6.808;2023-08-24T13:09:25;6.65;;;3.50;;
43248;SDS011;29216;51.248;6.808;2023-08-24T13:11:52;6.32;;;3.42;;
43248;SDS011;29216;51.248;6.808;2023-08-24T13:14:17;6.57;;;3.63;;
43248;SDS011;29216;51.248;6.808;2023-08-24T13:16:43;8.02;;;3.50;;
43248;SDS011;29216;51.248;6.808;2023-08-24T13:19:11;5.15;;;3.45;;
43248;SDS011;29216;51.248;6.808;2023-08-24T13:21:36;6.25;;;2.85;;
43248;SDS011;29216;51.248;6.808;2023-08-24T13:24:03;7.13;;;3.47;;
43248;SDS011;29216;51.248;6.808;2023-08-24T13:26:29;8.30;;;4.03;;
43248;SDS011;29216;51.248;6.808;2023-08-24T13:28:55;10.15;;;3.38;;
43248;SDS011;29216;51.248;6.808;2023-08-24T13:31:22;5.13;;;3.40;;
43248;SDS011;29216;51.248;6.808;2023-08-24T13:33:48;4.68;;;3.47;;
43248;SDS011;29216;51.248;6.808;2023-08-24T13:36:14;7.38;;;4.43;;
43248;SDS011;29216;51.248;6.808;2023-08-24T13:38:40;8.20;;;3.53;;
43248;SDS011;29216;51.248;6.808;2023-08-24T13:41:06;8.00;;;3.90;;
43248;SDS011;29216;51.248;6.808;2023-08-24T13:43:31;8.75;;;3.95;;
43248;SDS011;29216;51.248;6.808;2023-08-24T13:45:57;5.97;;;3.28;;
43248;SDS011;29216;51.248;6.808;2023-08-24T13:48:24;7.57;;;3.63;;
43248;SDS011;29216;51.248;6.808;2023-08-24T13:50:50;5.55;;;3.58;;
43248;SDS011;29216;51.248;6.808;2023-08-24T13:53:21;8.43;;;3.40;;
43248;SDS011;29216;51.248;6.808;2023-08-24T13:55:47;7.47;;;3.58;;
43248;SDS011;29216;51.248;6.808;2023-08-24T13:58:13;10.45;;;3.92;;
43248;SDS011;29216;51.248;6.808;2023-08-24T14:00:39;9.38;;;4.28;;
43248;SDS011;29216;51.248;6.808;2023-08-24T14:03:05;6.57;;;3.80;;
43248;SDS011;29216;51.248;6.808;2023-08-24T14:05:31;8.10;;;3.53;;
43248;SDS011;29216;51.248;6.808;2023-08-24T14:07:57;9.25;;;3.45;;
43248;SDS011;29216;51.248;6.808;2023-08-24T14:10:23;9.38;;;4.00;;
43248;SDS011;29216;51.248;6.808;2023-08-24T14:12:49;8.30;;;3.60;;
43248;SDS011;29216;51.248;6.808;2023-08-24T14:15:15;7.40;;;3.17;;
43248;SDS011;29216;51.248;6.808;2023-08-24T14:17:41;9.15;;;3.92;;
43248;SDS011;29216;51.248;6.808;2023-08-24T14:20:07;7.45;;;3.50;;
43248;SDS011;29216;51.248;6.808;2023-08-24T14:22:34;9.50;;;3.63;;
43248;SDS011;29216;51.248;6.808;2023-08-24T14:25:00;5.38;;;3.30;;
43248;SDS011;29216;51.248;6.808;2023-08-24T14:27:26;7.95;;;3.67;;
43248;SDS011;29216;51.248;6.808;2023-08-24T14:29:52;7.85;;;3.60;;
43248;SDS011;29216;51.248;6.808;2023-08-24T14:32:18;6.13;;;3.38;;
43248;SDS011;29216;51.248;6.808;2023-08-24T14:34:44;8.52;;;3.80;;
43248;SDS011;29216;51.248;6.808;2023-08-24T14:37:10;11.77;;;4.00;;
43248;SDS011;29216;51.248;6.808;2023-08-24T14:39:36;10.07;;;3.15;;
43248;SDS011;29216;51.248;6.808;2023-08-24T14:42:02;7.40;;;3.50;;
43248;SDS011;29216;51.248;6.808;2023-08-24T14:44:29;7.43;;;3.90;;
43248;SDS011;29216;51.248;6.808;2023-08-24T14:46:55;8.77;;;3.55;;
43248;SDS011;29216;51.248;6.808;2023-08-24T14:49:21;10.65;;;3.72;;
43248;SDS011;29216;51.248;6.808;2023-08-24T14:51:47;5.38;;;3.88;;
43248;SDS011;29216;51.248;6.808;2023-08-24T14:54:14;4.93;;;3.55;;
43248;SDS011;29216;51.248;6.808;2023-08-24T14:56:41;10.35;;;3.95;;
43248;SDS011;29216;51.248;6.808;2023-08-24T14:59:07;8.27;;;3.72;;